sensor_id;sensor_type;location;lat;lon;timestamp;temperature;humidity
5743;DHT22;2896;53.500;10.020;2024-03-23T04:37:22;5.50;99.90
5743;DHT22;2896;53.500;10.020;2024-03-23T08:25:41;10.30;1.00
5743;DHT22;2896;53.500;10.020;2024-03-23T09:14:38;9.80;1.00
5743;DHT22;2896;53.500;10.020;2024-03-23T09:17:00;10.10;1.00
5743;DHT22;2896;53.500;10.020;2024-03-23T09:51:34;12.00;99.90
5743;DHT22;2896;53.500;10.020;2024-03-23T10:01:01;11.30;99.90
5743;DHT22;2896;53.500;10.020;2024-03-23T10:04:08;10.90;99.90
5743;DHT22;2896;53.500;10.020;2024-03-23T10:12:50;11.40;99.90
5743;DHT22;2896;53.500;10.020;2024-03-23T10:34:45;12.80;94.00
5743;DHT22;2896;53.500;10.020;2024-03-23T10:44:44;14.20;37.30
5743;DHT22;2896;53.500;10.020;2024-03-23T10:59:15;14.80;1.00
5743;DHT22;2896;53.500;10.020;2024-03-23T11:22:55;13.20;1.00
5743;DHT22;2896;53.500;10.020;2024-03-23T11:42:12;13.50;1.00
5743;DHT22;2896;53.500;10.020;2024-03-23T11:48:54;12.20;1.00
5743;DHT22;2896;53.500;10.020;2024-03-23T11:52:20;11.90;1.00
5743;DHT22;2896;53.500;10.020;2024-03-23T11:58:22;12.00;1.00
5743;DHT22;2896;53.500;10.020;2024-03-23T12:04:05;13.30;1.00
5743;DHT22;2896;53.500;10.020;2024-03-23T12:43:52;10.10;1.00
5743;DHT22;2896;53.500;10.020;2024-03-23T12:46:45;9.90;1.00
5743;DHT22;2896;53.500;10.020;2024-03-23T12:52:07;9.20;1.00
5743;DHT22;2896;53.500;10.020;2024-03-23T12:54:49;9.10;1.00
5743;DHT22;2896;53.500;10.020;2024-03-23T12:57:14;9.10;1.00
5743;DHT22;2896;53.500;10.020;2024-03-23T12:59:46;8.70;1.00
5743;DHT22;2896;53.500;10.020;2024-03-23T13:02:16;8.50;1.00
5743;DHT22;2896;53.500;10.020;2024-03-23T13:04:44;8.40;51.00
5743;DHT22;2896;53.500;10.020;2024-03-23T13:07:13;8.10;1.00
5743;DHT22;2896;53.500;10.020;2024-03-23T13:09:41;8.10;99.90
5743;DHT22;2896;53.500;10.020;2024-03-23T13:14:38;8.70;99.90
5743;DHT22;2896;53.500;10.020;2024-03-23T13:17:09;8.90;1.00
5743;DHT22;2896;53.500;10.020;2024-03-23T13:32:59;8.40;1.00
5743;DHT22;2896;53.500;10.020;2024-03-23T13:35:28;8.20;1.00
5743;DHT22;2896;53.500;10.020;2024-03-23T13:37:58;8.40;99.90
5743;DHT22;2896;53.500;10.020;2024-03-23T13:43:02;9.40;99.90
5743;DHT22;2896;53.500;10.020;2024-03-23T13:45:32;9.80;1.00
5743;DHT22;2896;53.500;10.020;2024-03-23T13:48:27;10.00;99.90
5743;DHT22;2896;53.500;10.020;2024-03-23T13:51:25;10.20;1.00
5743;DHT22;2896;53.500;10.020;2024-03-23T13:53:55;9.70;1.00
5743;DHT22;2896;53.500;10.020;2024-03-23T13:56:26;9.80;1.00
5743;DHT22;2896;53.500;10.020;2024-03-23T13:58:54;10.00;1.00
5743;DHT22;2896;53.500;10.020;2024-03-23T14:16:42;12.00;38.90
5743;DHT22;2896;53.500;10.020;2024-03-23T14:19:31;12.20;6.00
5743;DHT22;2896;53.500;10.020;2024-03-23T14:22:16;12.30;1.00
5743;DHT22;2896;53.500;10.020;2024-03-23T14:25:14;12.10;1.00
5743;DHT22;2896;53.500;10.020;2024-03-23T14:28:14;12.10;1.00
5743;DHT22;2896;53.500;10.020;2024-03-23T14:38:06;11.80;1.00
5743;DHT22;2896;53.500;10.020;2024-03-23T14:46:10;12.00;1.00
5743;DHT22;2896;53.500;10.020;2024-03-23T14:48:50;11.90;1.00
5743;DHT22;2896;53.500;10.020;2024-03-23T14:51:29;11.70;1.00
5743;DHT22;2896;53.500;10.020;2024-03-23T14:57:45;11.80;1.00
5743;DHT22;2896;53.500;10.020;2024-03-23T15:18:26;9.80;1.00
5743;DHT22;2896;53.500;10.020;2024-03-23T15:24:44;9.00;99.90
5743;DHT22;2896;53.500;10.020;2024-03-23T15:35:40;11.10;1.00
5743;DHT22;2896;53.500;10.020;2024-03-23T15:38:25;11.50;1.00
5743;DHT22;2896;53.500;10.020;2024-03-23T15:41:04;15.70;99.90
5743;DHT22;2896;53.500;10.020;2024-03-23T15:44:53;11.10;99.90
5743;DHT22;2896;53.500;10.020;2024-03-23T15:47:47;10.80;1.00
5743;DHT22;2896;53.500;10.020;2024-03-23T15:50:43;10.40;1.00
5743;DHT22;2896;53.500;10.020;2024-03-23T15:57:24;9.60;99.90
5743;DHT22;2896;53.500;10.020;2024-03-23T16:13:14;8.90;99.90
5743;DHT22;2896;53.500;10.020;2024-03-23T16:27:20;8.70;1.00
5743;DHT22;2896;53.500;10.020;2024-03-23T16:45:16;8.50;99.90
5743;DHT22;2896;53.500;10.020;2024-03-23T17:04:59;8.00;99.90
5743;DHT22;2896;53.500;10.020;2024-03-23T17:07:42;7.90;1.00
5743;DHT22;2896;53.500;10.020;2024-03-23T17:10:59;7.80;1.00
5743;DHT22;2896;53.500;10.020;2024-03-23T17:14:06;7.70;1.00
5743;DHT22;2896;53.500;10.020;2024-03-23T17:17:06;7.50;1.00
5743;DHT22;2896;53.500;10.020;2024-03-23T17:23:36;7.20;60.00
5743;DHT22;2896;53.500;10.020;2024-03-23T17:56:55;6.30;1.00
5743;DHT22;2896;53.500;10.020;2024-03-23T18:00:30;6.30;99.90
5743;DHT22;2896;53.500;10.020;2024-03-23T18:22:29;5.70;99.90
5743;DHT22;2896;53.500;10.020;2024-03-23T18:28:42;5.60;99.90
5743;DHT22;2896;53.500;10.020;2024-03-23T18:41:40;5.30;99.90
5743;DHT22;2896;53.500;10.020;2024-03-23T18:44:08;5.10;99.90
5743;DHT22;2896;53.500;10.020;2024-03-23T18:46:34;5.30;99.90
5743;DHT22;2896;53.500;10.020;2024-03-23T18:49:00;5.30;99.90
5743;DHT22;2896;53.500;10.020;2024-03-23T18:51:28;5.30;99.90
5743;DHT22;2896;53.500;10.020;2024-03-23T18:53:55;5.30;99.90
5743;DHT22;2896;53.500;10.020;2024-03-23T18:56:24;5.20;99.90
5743;DHT22;2896;53.500;10.020;2024-03-23T18:58:53;5.20;99.90
5743;DHT22;2896;53.500;10.020;2024-03-23T19:01:18;5.20;99.90
5743;DHT22;2896;53.500;10.020;2024-03-23T19:03:46;5.20;99.90
5743;DHT22;2896;53.500;10.020;2024-03-23T19:06:12;5.20;99.90
5743;DHT22;2896;53.500;10.020;2024-03-23T19:08:39;5.30;99.90
5743;DHT22;2896;53.500;10.020;2024-03-23T19:11:04;6.50;99.90
5743;DHT22;2896;53.500;10.020;2024-03-23T19:13:31;5.30;99.90
5743;DHT22;2896;53.500;10.020;2024-03-23T19:16:00;5.20;99.90
5743;DHT22;2896;53.500;10.020;2024-03-23T19:18:27;5.20;99.90
5743;DHT22;2896;53.500;10.020;2024-03-23T19:20:53;5.30;99.90
5743;DHT22;2896;53.500;10.020;2024-03-23T19:23:20;5.20;99.90
5743;DHT22;2896;53.500;10.020;2024-03-23T19:25:52;5.20;99.90
5743;DHT22;2896;53.500;10.020;2024-03-23T19:28:19;5.30;99.90
5743;DHT22;2896;53.500;10.020;2024-03-23T19:30:45;5.30;99.90
5743;DHT22;2896;53.500;10.020;2024-03-23T19:33:13;5.40;99.90
5743;DHT22;2896;53.500;10.020;2024-03-23T19:35:38;5.40;99.90
5743;DHT22;2896;53.500;10.020;2024-03-23T19:38:06;5.40;99.90
5743;DHT22;2896;53.500;10.020;2024-03-23T19:40:31;7.10;99.90
5743;DHT22;2896;53.500;10.020;2024-03-23T19:42:58;5.40;99.90
5743;DHT22;2896;53.500;10.020;2024-03-23T19:45:24;5.40;99.90
5743;DHT22;2896;53.500;10.020;2024-03-23T19:47:51;8.20;99.90
5743;DHT22;2896;53.500;10.020;2024-03-23T19:50:18;5.40;99.90
5743;DHT22;2896;53.500;10.020;2024-03-23T19:52:45;5.10;99.90
5743;DHT22;2896;53.500;10.020;2024-03-23T19:55:13;5.20;99.90
5743;DHT22;2896;53.500;10.020;2024-03-23T19:57:40;7.90;99.90
5743;DHT22;2896;53.500;10.020;2024-03-23T20:00:07;5.30;99.90
5743;DHT22;2896;53.500;10.020;2024-03-23T20:02:34;5.30;99.90
5743;DHT22;2896;53.500;10.020;2024-03-23T20:05:00;5.30;99.90
5743;DHT22;2896;53.500;10.020;2024-03-23T20:07:29;6.10;99.90
5743;DHT22;2896;53.500;10.020;2024-03-23T20:09:55;5.10;99.90
5743;DHT22;2896;53.500;10.020;2024-03-23T20:12:21;7.80;99.90
5743;DHT22;2896;53.500;10.020;2024-03-23T20:14:47;7.80;99.90
5743;DHT22;2896;53.500;10.020;2024-03-23T20:17:14;5.20;99.90
5743;DHT22;2896;53.500;10.020;2024-03-23T20:19:40;5.40;99.90
5743;DHT22;2896;53.500;10.020;2024-03-23T20:22:06;5.50;99.90
5743;DHT22;2896;53.500;10.020;2024-03-23T20:24:33;5.40;99.90
5743;DHT22;2896;53.500;10.020;2024-03-23T20:27:02;5.10;99.90
5743;DHT22;2896;53.500;10.020;2024-03-23T20:29:27;5.50;99.90
5743;DHT22;2896;53.500;10.020;2024-03-23T20:31:54;5.40;99.90
5743;DHT22;2896;53.500;10.020;2024-03-23T20:34:20;5.30;99.90
5743;DHT22;2896;53.500;10.020;2024-03-23T20:36:47;5.30;99.90
5743;DHT22;2896;53.500;10.020;2024-03-23T20:39:13;4.60;99.90
5743;DHT22;2896;53.500;10.020;2024-03-23T20:41:43;5.30;99.90
5743;DHT22;2896;53.500;10.020;2024-03-23T20:44:08;5.70;99.90
5743;DHT22;2896;53.500;10.020;2024-03-23T20:46:35;6.50;99.90
5743;DHT22;2896;53.500;10.020;2024-03-23T20:49:01;4.90;99.90
5743;DHT22;2896;53.500;10.020;2024-03-23T20:51:28;4.30;99.90
5743;DHT22;2896;53.500;10.020;2024-03-23T20:53:54;5.00;99.90
5743;DHT22;2896;53.500;10.020;2024-03-23T20:56:21;8.50;99.90
5743;DHT22;2896;53.500;10.020;2024-03-23T20:58:48;5.00;99.90
5743;DHT22;2896;53.500;10.020;2024-03-23T21:01:15;8.50;99.90
5743;DHT22;2896;53.500;10.020;2024-03-23T21:03:41;5.00;99.90
5743;DHT22;2896;53.500;10.020;2024-03-23T21:06:08;6.30;99.90
5743;DHT22;2896;53.500;10.020;2024-03-23T21:08:34;5.20;99.90
5743;DHT22;2896;53.500;10.020;2024-03-23T21:11:01;5.30;99.90
5743;DHT22;2896;53.500;10.020;2024-03-23T21:13:29;5.20;99.90
5743;DHT22;2896;53.500;10.020;2024-03-23T21:15:58;4.60;99.90
5743;DHT22;2896;53.500;10.020;2024-03-23T21:18:25;4.80;99.90
5743;DHT22;2896;53.500;10.020;2024-03-23T21:20:54;4.80;99.90
5743;DHT22;2896;53.500;10.020;2024-03-23T21:25:54;4.80;99.90
5743;DHT22;2896;53.500;10.020;2024-03-23T21:28:20;6.90;99.90
5743;DHT22;2896;53.500;10.020;2024-03-23T21:33:14;4.80;99.90
5743;DHT22;2896;53.500;10.020;2024-03-23T21:50:21;4.70;99.90
5743;DHT22;2896;53.500;10.020;2024-03-23T21:55:15;4.70;99.90
5743;DHT22;2896;53.500;10.020;2024-03-23T21:57:40;4.70;99.90
5743;DHT22;2896;53.500;10.020;2024-03-23T22:00:08;5.90;99.90
5743;DHT22;2896;53.500;10.020;2024-03-23T22:02:35;4.60;99.90
5743;DHT22;2896;53.500;10.020;2024-03-23T22:05:02;4.70;99.90
5743;DHT22;2896;53.500;10.020;2024-03-23T22:07:30;4.70;99.90
5743;DHT22;2896;53.500;10.020;2024-03-23T22:09:58;5.30;99.90
5743;DHT22;2896;53.500;10.020;2024-03-23T22:14:52;4.80;99.90
5743;DHT22;2896;53.500;10.020;2024-03-23T22:17:17;4.80;99.90
5743;DHT22;2896;53.500;10.020;2024-03-23T22:19:48;4.50;99.90
5743;DHT22;2896;53.500;10.020;2024-03-23T22:22:20;4.70;99.90
5743;DHT22;2896;53.500;10.020;2024-03-23T22:24:48;4.70;99.90
5743;DHT22;2896;53.500;10.020;2024-03-23T22:37:06;4.50;99.90
5743;DHT22;2896;53.500;10.020;2024-03-23T22:42:00;4.40;99.90
5743;DHT22;2896;53.500;10.020;2024-03-23T22:56:40;4.20;99.90
5743;DHT22;2896;53.500;10.020;2024-03-23T22:59:09;4.10;99.90
5743;DHT22;2896;53.500;10.020;2024-03-23T23:04:01;4.10;99.90
5743;DHT22;2896;53.500;10.020;2024-03-23T23:06:27;4.10;99.90
5743;DHT22;2896;53.500;10.020;2024-03-23T23:08:55;4.10;99.90
5743;DHT22;2896;53.500;10.020;2024-03-23T23:11:21;4.00;99.90
5743;DHT22;2896;53.500;10.020;2024-03-23T23:16:16;4.00;99.90
5743;DHT22;2896;53.500;10.020;2024-03-23T23:21:08;4.00;99.90
5743;DHT22;2896;53.500;10.020;2024-03-23T23:30:58;4.00;99.90
5743;DHT22;2896;53.500;10.020;2024-03-23T23:33:27;4.00;99.90
5743;DHT22;2896;53.500;10.020;2024-03-23T23:35:53;3.90;99.90
5743;DHT22;2896;53.500;10.020;2024-03-23T23:45:40;3.90;99.90
5743;DHT22;2896;53.500;10.020;2024-03-23T23:50:34;3.80;99.90
5743;DHT22;2896;53.500;10.020;2024-03-23T23:53:01;3.50;99.90
5743;DHT22;2896;53.500;10.020;2024-03-23T23:55:27;3.80;99.90
5743;DHT22;2896;53.500;10.020;2024-03-23T23:57:54;3.80;99.90
